Time;durP1;ratioP1;P1;durP2;ratioP2;P2;SDS_P1;SDS_P2;PMS_P1;PMS_P2;Temp;Humidity;BMP_temperature;BMP_pressure;BME280_temperature;BME280_humidity;BME280_pressure;Samples;Min_cycle;Max_cycle;Signal;HPM_P1;HPM_P2
2022/09/17 00:00:38;;;;;;;14.77;6.25;;;24.50;99.90;;;;;;4947746;28;20495;-57
2022/09/17 00:03:04;;;;;;;15.27;6.40;;;24.50;99.90;;;;;;4942848;28;20488;-55
2022/09/17 00:05:29;;;;;;;15.52;6.25;;;24.50;99.90;;;;;;4948439;28;20133;-55
2022/09/17 00:07:56;;;;;;;14.30;5.70;;;24.60;99.90;;;;;;4951159;28;20090;-56
2022/09/17 00:10:22;;;;;;;17.35;6.88;;;24.60;99.90;;;;;;4950393;28;20027;-56
2022/09/17 00:12:48;;;;;;;16.40;5.70;;;24.60;99.90;;;;;;4951914;28;20283;-56
2022/09/17 00:15:15;;;;;;;16.27;6.13;;;24.60;99.90;;;;;;4951635;28;20517;-56
2022/09/17 00:17:41;;;;;;;16.65;6.38;;;24.60;99.90;;;;;;4951951;28;20055;-56
2022/09/17 00:20:11;;;;;;;15.00;7.15;;;24.60;99.90;;;;;;4950063;28;20047;-57
2022/09/17 00:22:37;;;;;;;17.70;6.40;;;24.70;99.90;;;;;;4952083;28;20514;-56
2022/09/17 00:25:04;;;;;;;15.02;4.90;;;24.70;99.90;;;;;;4949601;29;20126;-56
2022/09/17 00:27:30;;;;;;;15.65;5.63;;;24.70;99.90;;;;;;4951682;28;20027;-55
2022/09/17 00:29:56;;;;;;;14.65;4.88;;;24.70;99.90;;;;;;4951459;28;20046;-56
2022/09/17 00:32:22;;;;;;;7.40;4.50;;;24.70;99.90;;;;;;4951931;28;20395;-56
2022/09/17 00:34:51;;;;;;;16.25;5.55;;;24.70;99.90;;;;;;4951509;28;20046;-56
2022/09/17 00:37:17;;;;;;;13.02;4.68;;;24.70;99.90;;;;;;4948788;28;20078;-56
2022/09/17 00:39:43;;;;;;;9.25;4.80;;;24.60;99.90;;;;;;4945233;29;20038;-56
2022/09/17 00:42:13;;;;;;;11.57;4.47;;;24.70;99.90;;;;;;4946776;28;21053;-56
2022/09/17 00:44:49;;;;;;;10.20;4.80;;;24.70;99.90;;;;;;4951540;28;20034;-55
2022/09/17 00:47:15;;;;;;;10.65;4.70;;;24.60;99.90;;;;;;4947684;28;20023;-56
2022/09/17 00:49:42;;;;;;;15.10;4.72;;;24.60;99.90;;;;;;4943650;28;20032;-56
2022/09/17 00:52:14;;;;;;;13.30;5.55;;;24.70;99.90;;;;;;4945383;29;20015;-56
2022/09/17 00:54:44;;;;;;;14.88;5.18;;;24.60;99.90;;;;;;4951042;28;20114;-56
2022/09/17 00:57:10;;;;;;;12.68;5.70;;;24.70;99.90;;;;;;4951241;28;20019;-56
2022/09/17 00:59:36;;;;;;;16.85;6.38;;;24.70;99.90;;;;;;4951381;28;20372;-55
2022/09/17 01:02:03;;;;;;;12.77;4.57;;;24.70;99.90;;;;;;4951142;28;20122;-56
2022/09/17 01:04:29;;;;;;;13.10;4.97;;;24.70;99.90;;;;;;4951440;28;20487;-56
2022/09/17 01:07:20;;;;;;;11.98;4.55;;;24.70;99.90;;;;;;4951364;28;20031;-55
2022/09/17 01:10:04;;;;;;;13.82;5.25;;;24.70;99.90;;;;;;4950847;28;20178;-56
2022/09/17 01:12:41;;;;;;;13.88;4.78;;;24.80;99.90;;;;;;4950110;29;20444;-56
2022/09/17 01:15:30;;;;;;;8.60;4.18;;;24.80;99.90;;;;;;4950804;28;20031;-56
2022/09/17 01:18:21;;;;;;;8.55;4.68;;;24.80;99.90;;;;;;4951224;28;20027;-56
2022/09/17 01:20:56;;;;;;;7.75;4.10;;;24.80;99.90;;;;;;4950558;28;20045;-55
2022/09/17 01:23:40;;;;;;;9.35;4.93;;;24.80;99.90;;;;;;4950212;28;20027;-55
2022/09/17 01:26:28;;;;;;;10.80;4.80;;;24.90;99.90;;;;;;4947769;29;20023;-54
2022/09/17 01:29:12;;;;;;;;;;;24.80;99.90;;;;;;4951555;28;20763;-55
2022/09/17 01:32:04;;;;;;;5.78;2.92;;;24.90;99.90;;;;;;4949205;29;20358;-55
2022/09/17 01:34:58;;;;;;;6.47;2.78;;;24.90;99.90;;;;;;4944067;28;20118;-59
2022/09/17 01:37:29;;;;;;;8.90;2.47;;;24.90;99.90;;;;;;4950033;29;20111;-56
2022/09/17 01:40:08;;;;;;;10.88;3.05;;;24.90;99.90;;;;;;4950392;28;20114;-55
2022/09/17 01:42:58;;;;;;;5.93;3.72;;;24.90;99.90;;;;;;4949138;29;20058;-56
2022/09/17 01:45:37;;;;;;;5.80;3.53;;;24.90;99.90;;;;;;4950010;28;20431;-55
2022/09/17 01:48:16;;;;;;;8.55;4.53;;;24.90;99.90;;;;;;4945303;29;20064;-55
2022/09/17 01:50:48;;;;;;;8.57;3.45;;;24.90;99.90;;;;;;4945358;28;20042;-56
2022/09/17 01:53:17;;;;;;;9.05;3.13;;;24.90;99.90;;;;;;4950804;29;20027;-57
2022/09/17 01:55:45;;;;;;;6.60;2.92;;;24.90;99.90;;;;;;4949065;29;20070;-56
2022/09/17 01:58:19;;;;;;;;;;;24.90;99.90;;;;;;4951196;28;20118;-56
2022/09/17 02:00:50;;;;;;;4.63;2.33;;;24.90;99.90;;;;;;4950571;23;20010;-50
2022/09/17 02:03:30;;;;;;;4.07;2.35;;;24.90;99.90;;;;;;4931482;29;20448;-51
2022/09/17 02:06:09;;;;;;;5.57;2.50;;;24.90;99.90;;;;;;4931621;29;20034;-51
2022/09/17 02:08:45;;;;;;;4.82;1.85;;;24.90;99.90;;;;;;4931547;29;20059;-51
2022/09/17 02:11:15;;;;;;;5.82;2.20;;;24.90;99.90;;;;;;4930989;29;20039;-51
2022/09/17 02:13:50;;;;;;;2.10;1.63;;;25.00;99.90;;;;;;4929855;29;20020;-51
2022/09/17 02:16:25;;;;;;;7.43;2.70;;;24.90;99.90;;;;;;4926457;29;20024;-52
2022/09/17 02:19:09;;;;;;;11.15;2.40;;;25.00;99.90;;;;;;4932496;29;20032;-53
2022/09/17 02:22:07;;;;;;;8.13;2.55;;;25.00;99.90;;;;;;4932520;29;20027;-53
2022/09/17 02:25:17;;;;;;;4.38;2.50;;;25.00;99.90;;;;;;4931368;29;20028;-53
2022/09/17 02:27:59;;;;;;;4.30;2.30;;;25.10;99.90;;;;;;4932648;29;20371;-52
2022/09/17 02:30:24;;;;;;;6.50;2.42;;;25.00;99.90;;;;;;4933085;29;20016;-50
2022/09/17 02:32:50;;;;;;;3.95;1.92;;;25.10;99.90;;;;;;4935500;28;20058;-52
2022/09/17 02:35:16;;;;;;;8.38;2.20;;;25.10;99.90;;;;;;4935622;29;20027;-52
2022/09/17 02:37:43;;;;;;;3.63;2.25;;;25.10;99.90;;;;;;4936495;29;20056;-52
2022/09/17 02:40:14;;;;;;;8.00;2.00;;;25.10;99.90;;;;;;4936850;29;20032;-53
2022/09/17 02:42:52;;;;;;;7.55;2.33;;;25.10;99.90;;;;;;4936883;29;20083;-53
2022/09/17 02:45:45;;;;;;;3.58;2.03;;;25.20;99.90;;;;;;4936281;29;20031;-52
2022/09/17 02:48:10;;;;;;;7.50;2.60;;;25.20;99.90;;;;;;4936255;29;20036;-53
2022/09/17 02:51:30;;;;;;;8.90;3.75;;;25.20;99.90;;;;;;4936579;29;20035;-53
2022/09/17 02:53:56;;;;;;;16.63;5.47;;;25.20;99.90;;;;;;4896348;29;20115;-53
2022/09/17 02:56:32;;;;;;;14.98;6.80;;;25.20;99.90;;;;;;4928251;29;20556;-53
2022/09/17 03:01:50;;;;;;;20.75;6.45;;;25.00;99.90;;;;;;4935162;29;20199;-55
2022/09/17 03:04:19;;;;;;;18.58;6.82;;;24.90;99.90;;;;;;4936449;29;20115;-55
2022/09/17 03:06:46;;;;;;;18.30;7.03;;;24.90;99.90;;;;;;4936460;29;20024;-55
2022/09/17 03:09:13;;;;;;;17.38;5.88;;;24.80;99.90;;;;;;4936315;29;20035;-55
2022/09/17 03:11:40;;;;;;;;;;;24.70;99.90;;;;;;4936722;29;20031;-55
2022/09/17 03:14:05;;;;;;;13.82;6.53;;;24.70;99.90;;;;;;4936217;29;19907;-55
2022/09/17 03:16:31;;;;;;;16.88;5.97;;;24.60;99.90;;;;;;4936377;29;20020;-55
2022/09/17 03:18:57;;;;;;;17.70;6.50;;;24.60;99.90;;;;;;4936167;29;20023;-55
2022/09/17 03:21:23;;;;;;;13.30;6.13;;;24.50;99.90;;;;;;4936220;29;20368;-55
2022/09/17 03:23:49;;;;;;;13.25;6.50;;;24.40;99.90;;;;;;4936366;29;20103;-55
2022/09/17 03:26:14;;;;;;;19.60;6.40;;;24.40;99.90;;;;;;4936076;29;20031;-55
2022/09/17 03:28:40;;;;;;;16.00;7.15;;;24.40;99.90;;;;;;4936091;29;20330;-55
2022/09/17 03:31:06;;;;;;;12.52;6.85;;;24.30;99.90;;;;;;4935834;29;20503;-55
2022/09/17 03:33:32;;;;;;;16.58;6.10;;;24.30;99.90;;;;;;4935980;29;20032;-55
2022/09/17 03:35:58;;;;;;;18.25;6.22;;;24.20;99.90;;;;;;4935946;29;20055;-55
2022/09/17 03:38:24;;;;;;;15.05;6.32;;;24.20;99.90;;;;;;4935760;29;20031;-55
2022/09/17 03:41:16;;;;;;;15.55;5.93;;;24.20;99.90;;;;;;4935715;29;20035;-55
2022/09/17 03:43:42;;;;;;;20.50;5.95;;;24.20;99.90;;;;;;4932107;29;20098;-55
2022/09/17 03:46:07;;;;;;;15.80;6.03;;;24.20;99.90;;;;;;4935603;29;20027;-55
2022/09/17 03:48:35;;;;;;;16.85;6.45;;;24.20;99.90;;;;;;4935844;29;20384;-55
2022/09/17 03:51:02;;;;;;;12.43;5.15;;;24.20;99.90;;;;;;4935596;29;20103;-55
2022/09/17 03:53:27;;;;;;;10.80;4.85;;;24.20;99.90;;;;;;4935497;29;20035;-55
2022/09/17 03:55:56;;;;;;;14.82;6.05;;;24.20;99.90;;;;;;4935364;29;20027;-55
2022/09/17 03:58:22;;;;;;;15.48;5.90;;;24.20;99.90;;;;;;4935366;29;20050;-55
2022/09/17 04:00:52;;;;;;;18.45;5.47;;;24.20;99.90;;;;;;4947343;23;20079;-53
2022/09/17 04:03:18;;;;;;;14.82;5.10;;;24.10;99.90;;;;;;4935261;29;20043;-53
2022/09/17 04:05:44;;;;;;;18.00;5.22;;;24.20;99.90;;;;;;4935282;29;20043;-53
2022/09/17 04:08:10;;;;;;;12.10;5.10;;;24.20;99.90;;;;;;4935412;29;20456;-53
2022/09/17 04:10:36;;;;;;;10.63;4.50;;;24.20;99.90;;;;;;4935341;29;20028;-53
2022/09/17 04:13:02;;;;;;;10.07;4.57;;;24.20;99.90;;;;;;4935127;29;20380;-53
2022/09/17 04:15:27;;;;;;;13.68;5.53;;;24.20;99.90;;;;;;4935071;29;20039;-53
2022/09/17 04:17:56;;;;;;;10.32;4.80;;;24.20;99.90;;;;;;4934947;29;20114;-53
2022/09/17 04:20:24;;;;;;;7.20;3.60;;;24.20;99.90;;;;;;4934807;29;20563;-53
2022/09/17 04:22:50;;;;;;;7.35;3.50;;;24.20;99.90;;;;;;4935009;29;20115;-53
2022/09/17 04:25:16;;;;;;;12.45;3.58;;;24.20;99.90;;;;;;4934966;29;20170;-53
2022/09/17 04:27:43;;;;;;;9.98;3.70;;;24.20;99.90;;;;;;4934978;29;20388;-53
2022/09/17 04:30:09;;;;;;;9.13;4.50;;;24.20;99.90;;;;;;4935112;29;20023;-52
2022/09/17 04:32:35;;;;;;;14.60;4.70;;;24.20;99.90;;;;;;4934904;29;20095;-53
2022/09/17 04:35:01;;;;;;;14.10;5.55;;;24.20;99.90;;;;;;4934687;29;20028;-52
2022/09/17 04:37:26;;;;;;;11.48;4.20;;;24.10;99.90;;;;;;4934859;29;20114;-53
2022/09/17 04:39:52;;;;;;;14.88;4.10;;;24.10;99.90;;;;;;4934700;29;20032;-53
2022/09/17 04:42:18;;;;;;;13.10;3.45;;;24.10;99.90;;;;;;4934614;29;20416;-53
2022/09/17 04:44:44;;;;;;;13.52;4.15;;;24.00;99.90;;;;;;4934658;29;20042;-53
2022/09/17 04:47:09;;;;;;;7.32;3.15;;;23.90;99.90;;;;;;4934670;29;20392;-53
2022/09/17 04:49:35;;;;;;;11.40;3.28;;;23.80;99.90;;;;;;4934518;29;20526;-52
2022/09/17 04:52:01;;;;;;;10.13;3.22;;;23.80;99.90;;;;;;4934375;29;20175;-52
2022/09/17 04:54:27;;;;;;;8.90;3.60;;;23.70;99.90;;;;;;4933861;29;20041;-53
2022/09/17 04:56:52;;;;;;;10.98;3.67;;;23.70;99.90;;;;;;4934372;29;20445;-52
2022/09/17 04:59:18;;;;;;;4.80;2.38;;;23.60;99.90;;;;;;4934266;29;20045;-53
2022/09/17 05:01:44;;;;;;;8.57;2.63;;;23.60;99.90;;;;;;4934202;29;20126;-52
2022/09/17 05:04:10;;;;;;;9.75;3.03;;;23.50;99.90;;;;;;4934602;29;20040;-52
2022/09/17 05:06:35;;;;;;;6.13;2.67;;;23.50;99.90;;;;;;4934201;29;20373;-52
2022/09/17 05:09:01;;;;;;;5.40;2.70;;;23.50;99.90;;;;;;4934205;29;20090;-53
2022/09/17 05:11:27;;;;;;;10.13;2.85;;;23.50;99.90;;;;;;4934510;29;20073;-52
2022/09/17 05:13:53;;;;;;;10.20;2.90;;;23.40;99.90;;;;;;4934168;29;20038;-53
2022/09/17 05:16:19;;;;;;;10.13;3.85;;;23.40;99.90;;;;;;4934234;29;20496;-53
2022/09/17 05:18:45;;;;;;;4.70;2.92;;;23.40;99.90;;;;;;4934090;29;20034;-53
2022/09/17 05:21:11;;;;;;;9.73;3.67;;;23.40;99.90;;;;;;4934276;29;20095;-53
2022/09/17 05:23:37;;;;;;;15.65;3.92;;;23.40;99.90;;;;;;4934308;29;20024;-53
2022/09/17 05:26:03;;;;;;;8.73;3.10;;;23.40;99.90;;;;;;4934147;29;20040;-53
2022/09/17 05:28:28;;;;;;;16.52;3.05;;;23.40;99.90;;;;;;4934008;29;20028;-52
2022/09/17 05:30:58;;;;;;;6.70;3.17;;;23.40;99.90;;;;;;4934049;29;20032;-52
2022/09/17 05:33:24;;;;;;;12.10;3.75;;;23.40;99.90;;;;;;4933979;29;20035;-52
2022/09/17 05:35:50;;;;;;;17.00;4.43;;;23.40;99.90;;;;;;4934240;29;20031;-53
2022/09/17 05:38:17;;;;;;;12.68;3.05;;;23.40;99.90;;;;;;4934043;29;20051;-53
2022/09/17 05:40:47;;;;;;;10.57;3.22;;;23.40;99.90;;;;;;4934079;29;20036;-53
2022/09/17 05:43:14;;;;;;;5.68;3.15;;;23.40;99.90;;;;;;4934052;29;20038;-52
2022/09/17 05:45:40;;;;;;;9.20;3.05;;;23.30;99.90;;;;;;4934022;29;20028;-52
2022/09/17 05:48:10;;;;;;;10.45;3.50;;;23.30;99.90;;;;;;4933815;29;20029;-52
2022/09/17 05:50:36;;;;;;;11.13;3.13;;;23.30;99.90;;;;;;4933993;29;20059;-52
2022/09/17 05:53:09;;;;;;;10.50;3.58;;;23.30;99.90;;;;;;4933849;29;20091;-53
2022/09/17 05:55:35;;;;;;;12.10;5.75;;;23.30;99.90;;;;;;4933772;29;20139;-52
2022/09/17 05:58:11;;;;;;;9.30;4.32;;;23.30;99.90;;;;;;4933760;29;20098;-52
2022/09/17 06:00:38;;;;;;;10.40;4.00;;;23.30;99.90;;;;;;4933474;29;20055;-54
2022/09/17 06:03:04;;;;;;;11.27;3.55;;;23.30;99.90;;;;;;4933607;29;20091;-52
2022/09/17 06:05:30;;;;;;;7.50;4.40;;;23.30;99.90;;;;;;4933700;29;20035;-53
2022/09/17 06:07:55;;;;;;;14.77;7.90;;;23.30;99.90;;;;;;4936358;29;20033;-52
2022/09/17 06:10:21;;;;;;;13.88;7.53;;;23.30;99.90;;;;;;4937369;29;20043;-52
2022/09/17 06:12:47;;;;;;;12.05;5.88;;;23.30;99.90;;;;;;4937458;29;20024;-52
2022/09/17 06:15:13;;;;;;;8.60;4.43;;;23.30;99.90;;;;;;4937389;29;20419;-52
2022/09/17 06:17:39;;;;;;;11.60;4.90;;;23.30;99.90;;;;;;4937504;29;20027;-53
2022/09/17 06:20:06;;;;;;;8.27;4.20;;;23.20;99.90;;;;;;4937320;29;20093;-52
2022/09/17 06:22:32;;;;;;;10.48;5.95;;;23.30;99.90;;;;;;4937146;29;20031;-53
2022/09/17 06:24:59;;;;;;;13.88;6.97;;;23.20;99.90;;;;;;4937092;29;20028;-53
2022/09/17 06:27:35;;;;;;;17.13;6.22;;;23.30;99.90;;;;;;4937217;29;20055;-52
2022/09/17 06:30:01;;;;;;;12.48;5.57;;;23.20;99.90;;;;;;4936924;29;20524;-53
2022/09/17 06:32:27;;;;;;;9.23;4.70;;;23.20;99.90;;;;;;4936935;29;20035;-53
2022/09/17 06:34:57;;;;;;;10.23;5.50;;;23.20;99.90;;;;;;4937134;29;20372;-53
2022/09/17 06:37:32;;;;;;;14.15;6.15;;;23.20;99.90;;;;;;4937052;29;20496;-53
2022/09/17 06:39:58;;;;;;;12.93;6.68;;;23.20;99.90;;;;;;4936706;29;20417;-53
2022/09/17 06:42:24;;;;;;;11.15;6.45;;;23.20;99.90;;;;;;4936599;29;20027;-52
2022/09/17 06:44:50;;;;;;;23.45;9.25;;;23.20;99.90;;;;;;4936937;29;20596;-53
2022/09/17 06:47:17;;;;;;;11.95;6.70;;;23.30;99.90;;;;;;4936816;29;20106;-52
2022/09/17 06:49:42;;;;;;;14.25;6.13;;;23.20;99.90;;;;;;4936691;29;20063;-53
2022/09/17 06:52:08;;;;;;;11.63;6.18;;;23.20;99.90;;;;;;4935539;29;20059;-52
2022/09/17 06:54:34;;;;;;;12.63;5.70;;;23.30;99.90;;;;;;4936540;29;20055;-53
2022/09/17 06:57:00;;;;;;;11.25;5.45;;;23.30;99.90;;;;;;4936344;29;20050;-53
2022/09/17 06:59:27;;;;;;;14.05;6.65;;;23.30;99.90;;;;;;4936272;29;20047;-52
2022/09/17 07:01:53;;;;;;;16.08;7.50;;;23.40;99.90;;;;;;4936310;29;20036;-52
2022/09/17 07:04:19;;;;;;;15.70;7.28;;;23.40;99.90;;;;;;4936319;29;20072;-53
2022/09/17 07:06:45;;;;;;;11.55;5.72;;;23.50;99.90;;;;;;4935833;29;20135;-52
2022/09/17 07:09:11;;;;;;;13.60;5.28;;;23.50;99.90;;;;;;4936218;29;20027;-53
2022/09/17 07:11:38;;;;;;;15.65;6.45;;;23.50;99.90;;;;;;4936287;29;20025;-53
2022/09/17 07:14:05;;;;;;;13.68;6.40;;;23.60;99.90;;;;;;4936149;29;20110;-53
2022/09/17 07:16:33;;;;;;;14.13;5.75;;;23.60;99.90;;;;;;4936129;29;20055;-52
2022/09/17 07:18:59;;;;;;;14.10;5.80;;;23.60;99.90;;;;;;4935638;29;20180;-53
2022/09/17 07:21:25;;;;;;;16.88;7.47;;;23.60;99.90;;;;;;4935891;29;20563;-53
2022/09/17 07:23:51;;;;;;;10.38;4.18;;;23.70;99.90;;;;;;4935966;29;20028;-53
2022/09/17 07:26:16;;;;;;;12.77;7.57;;;23.70;99.90;;;;;;4936249;29;20385;-53
2022/09/17 07:28:42;;;;;;;20.90;10.65;;;23.70;99.90;;;;;;4935838;29;20043;-52
2022/09/17 07:31:09;;;;;;;19.30;10.60;;;23.80;99.90;;;;;;4935875;29;20024;-53
2022/09/17 07:33:36;;;;;;;22.83;13.45;;;23.80;99.90;;;;;;4935733;29;20031;-53
2022/09/17 07:36:05;;;;;;;9.07;5.13;;;23.80;99.90;;;;;;4935675;29;20031;-52
2022/09/17 07:38:30;;;;;;;8.93;4.68;;;23.90;99.90;;;;;;4935662;29;20028;-53
2022/09/17 07:40:59;;;;;;;13.93;5.55;;;23.90;99.90;;;;;;4935544;29;20115;-53
2022/09/17 07:43:31;;;;;;;22.05;5.18;;;24.00;99.90;;;;;;4935656;29;20111;-53
2022/09/17 07:45:58;;;;;;;16.95;3.95;;;24.00;99.90;;;;;;4935660;29;20055;-53
2022/09/17 07:48:24;;;;;;;7.30;3.65;;;24.10;99.90;;;;;;4935471;29;20086;-52
2022/09/17 07:50:50;;;;;;;11.43;4.45;;;24.10;99.90;;;;;;4935775;29;20031;-53
2022/09/17 07:53:17;;;;;;;11.70;4.13;;;24.10;99.90;;;;;;4935323;29;20433;-52
2022/09/17 07:55:59;;;;;;;8.38;4.15;;;24.20;99.90;;;;;;4935303;29;20027;-53
2022/09/17 07:58:31;;;;;;;8.75;3.38;;;24.30;99.90;;;;;;4935301;29;20032;-52
2022/09/17 08:01:05;;;;;;;7.28;3.00;;;24.30;99.90;;;;;;4934922;29;20054;-53
2022/09/17 08:03:32;;;;;;;9.70;5.53;;;24.40;99.90;;;;;;4935013;29;20030;-53
2022/09/17 08:06:02;;;;;;;9.95;4.13;;;24.50;99.90;;;;;;4935040;29;20061;-53
2022/09/17 08:08:32;;;;;;;7.22;3.63;;;24.50;99.90;;;;;;4935000;29;20103;-52
2022/09/17 08:11:03;;;;;;;9.02;4.53;;;24.60;99.90;;;;;;4935087;29;20028;-53
2022/09/17 08:13:29;;;;;;;18.48;11.38;;;24.60;99.90;;;;;;4935137;29;20082;-53
2022/09/17 08:15:59;;;;;;;6.78;4.47;;;24.70;99.90;;;;;;4935039;29;20480;-53
2022/09/17 08:18:26;;;;;;;8.68;3.53;;;24.80;99.90;;;;;;4934925;29;20385;-53
2022/09/17 08:20:55;;;;;;;7.13;2.75;;;24.80;99.90;;;;;;4934981;29;20032;-53
2022/09/17 08:23:20;;;;;;;6.95;2.78;;;24.90;99.90;;;;;;4935050;29;20028;-53
2022/09/17 08:25:55;;;;;;;6.30;2.42;;;25.00;99.90;;;;;;4934834;29;20151;-53
2022/09/17 08:28:21;;;;;;;9.05;2.63;;;25.00;99.90;;;;;;4934816;29;20024;-53
2022/09/17 08:30:48;;;;;;;8.13;4.30;;;25.20;99.90;;;;;;4933769;29;20024;-53
2022/09/17 08:33:14;;;;;;;10.37;5.37;;;25.20;99.90;;;;;;4934680;29;20151;-53
2022/09/17 08:35:40;;;;;;;4.20;1.65;;;25.30;99.90;;;;;;4934653;29;20424;-53
2022/09/17 08:38:06;;;;;;;10.55;3.40;;;25.40;99.90;;;;;;4934596;29;20030;-53
2022/09/17 08:40:40;;;;;;;11.75;4.00;;;25.40;99.90;;;;;;4934532;29;20286;-53
2022/09/17 08:43:15;;;;;;;9.90;4.13;;;25.50;99.90;;;;;;4934657;29;20019;-53
2022/09/17 08:45:41;;;;;;;7.90;3.63;;;25.60;99.90;;;;;;4934556;29;20027;-53
2022/09/17 08:48:13;;;;;;;6.28;2.88;;;25.60;99.90;;;;;;4934420;29;20031;-54
2022/09/17 08:50:41;;;;;;;5.97;2.60;;;25.70;99.90;;;;;;4934464;29;20110;-54
2022/09/17 08:53:37;;;;;;;13.05;5.43;;;25.80;99.90;;;;;;4934355;29;20031;-53
2022/09/17 08:56:12;;;;;;;2.35;1.77;;;25.80;99.90;;;;;;4934380;29;20024;-53
2022/09/17 08:59:03;;;;;;;4.90;2.80;;;25.90;99.90;;;;;;4934302;29;20036;-53
2022/09/17 09:01:41;;;;;;;6.80;3.42;;;26.00;99.90;;;;;;4934191;29;20067;-54
2022/09/17 09:04:09;;;;;;;6.78;2.17;;;26.00;99.90;;;;;;4934177;29;20391;-53
2022/09/17 09:06:51;;;;;;;6.43;2.90;;;26.10;99.90;;;;;;4934165;29;20035;-53
2022/09/17 09:09:21;;;;;;;6.90;3.80;;;26.20;99.90;;;;;;4934186;29;20436;-53
2022/09/17 09:11:53;;;;;;;5.80;2.33;;;26.20;99.90;;;;;;4934099;29;20181;-53
2022/09/17 09:14:25;;;;;;;8.75;4.32;;;26.30;99.90;;;;;;4934149;29;20067;-53
2022/09/17 09:16:53;;;;;;;3.13;2.22;;;26.30;99.90;;;;;;4934158;29;20115;-54
2022/09/17 09:19:29;;;;;;;6.30;2.00;;;26.40;99.90;;;;;;4933941;29;20057;-54
2022/09/17 09:22:20;;;;;;;7.15;3.33;;;26.50;99.90;;;;;;4933988;29;20521;-53
2022/09/17 09:25:16;;;;;;;6.18;3.03;;;26.50;99.90;;;;;;4925951;29;20039;-54
2022/09/17 09:28:13;;;;;;;6.50;2.72;;;26.60;99.90;;;;;;4921243;29;20036;-53
2022/09/17 09:31:25;;;;;;;9.32;3.13;;;26.60;99.90;;;;;;4908896;29;20032;-53
2022/09/17 09:33:51;;;;;;;3.25;2.45;;;26.60;99.90;;;;;;4875102;29;20465;-54
2022/09/17 09:36:20;;;;;;;6.22;3.10;;;26.70;99.90;;;;;;4875150;29;20034;-54
2022/09/17 09:39:12;;;;;;;9.43;3.30;;;26.80;99.90;;;;;;4903841;29;20130;-54
2022/09/17 09:41:57;;;;;;;8.02;5.20;;;26.80;99.90;;;;;;4936098;29;20071;-53
2022/09/17 09:44:24;;;;;;;7.07;2.55;;;26.80;99.90;;;;;;4936460;29;20412;-53
2022/09/17 09:47:31;;;;;;;6.40;3.88;;;26.90;99.90;;;;;;4937756;29;20059;-53
2022/09/17 09:50:11;;;;;;;7.63;4.47;;;27.00;99.90;;;;;;4937814;29;20111;-53
2022/09/17 09:52:57;;;;;;;8.20;3.35;;;27.00;99.90;;;;;;4937663;29;20086;-53
2022/09/17 09:55:37;;;;;;;7.20;2.47;;;27.20;99.90;;;;;;4937689;29;20415;-53
2022/09/17 09:58:31;;;;;;;10.13;3.58;;;27.20;99.90;;;;;;4937530;29;20020;-53
2022/09/17 10:00:57;;;;;;;3.67;1.80;;;27.20;99.90;;;;;;4937456;29;20052;-53
2022/09/17 10:03:27;;;;;;;11.20;4.78;;;27.40;99.90;;;;;;4937391;29;20387;-53
2022/09/17 10:05:59;;;;;;;4.70;2.30;;;27.40;99.90;;;;;;4937340;29;20034;-53
2022/09/17 10:08:27;;;;;;;9.15;4.18;;;27.50;99.90;;;;;;4936184;29;20122;-53
2022/09/17 10:10:57;;;;;;;;;;;27.50;99.90;;;;;;4937823;29;20030;-53
2022/09/17 10:13:25;;;;;;;10.15;2.95;;;27.60;99.90;;;;;;4937204;29;19959;-53
2022/09/17 10:15:50;;;;;;;6.43;3.00;;;27.70;99.90;;;;;;4937069;29;20038;-52
2022/09/17 10:18:22;;;;;;;8.20;2.90;;;27.80;99.90;;;;;;4936964;29;20384;-52
2022/09/17 10:20:59;;;;;;;8.82;3.05;;;27.80;99.90;;;;;;4937004;29;20042;-54
2022/09/17 10:23:33;;;;;;;7.45;2.97;;;27.90;99.90;;;;;;4937249;29;20408;-53
2022/09/17 10:25:59;;;;;;;7.78;2.90;;;28.00;99.90;;;;;;4937216;29;20067;-54
2022/09/17 10:28:30;;;;;;;8.20;2.83;;;28.00;99.90;;;;;;4936822;29;20428;-54
2022/09/17 10:30:58;;;;;;;6.20;2.72;;;28.00;99.90;;;;;;4936755;29;20027;-54
2022/09/17 10:33:28;;;;;;;6.03;2.42;;;28.10;99.90;;;;;;4935560;29;20030;-54
2022/09/17 10:36:14;;;;;;;4.68;2.55;;;28.20;99.90;;;;;;4936767;29;20396;-54
2022/09/17 10:38:42;;;;;;;4.00;2.50;;;28.20;99.90;;;;;;4936399;29;20381;-54
2022/09/17 10:41:14;;;;;;;5.60;2.55;;;28.20;99.90;;;;;;4936611;29;20067;-54
2022/09/17 10:43:40;;;;;;;8.65;2.90;;;28.30;99.90;;;;;;4936718;29;20388;-55
2022/09/17 10:46:11;;;;;;;4.57;2.40;;;28.40;99.90;;;;;;4936573;29;20024;-54
2022/09/17 10:48:49;;;;;;;7.25;2.70;;;28.40;99.90;;;;;;4936634;29;20034;-54
2022/09/17 10:51:22;;;;;;;2.30;1.13;;;28.50;99.90;;;;;;4936861;29;20032;-53
2022/09/17 10:54:21;;;;;;;4.43;2.05;;;28.50;99.90;;;;;;4935769;29;20031;-54
2022/09/17 10:56:53;;;;;;;2.97;1.73;;;28.60;99.90;;;;;;4917564;29;20031;-55
2022/09/17 10:59:55;;;;;;;7.07;2.47;;;28.60;99.90;;;;;;4936412;29;20020;-54
2022/09/17 11:02:43;;;;;;;5.63;2.08;;;28.70;99.90;;;;;;4935833;29;20048;-54
2022/09/17 11:05:33;;;;;;;4.10;1.98;;;28.80;99.90;;;;;;4936125;29;20562;-54
2022/09/17 11:08:34;;;;;;;4.68;2.05;;;28.90;99.90;;;;;;4936212;29;20042;-53
2022/09/17 11:11:09;;;;;;;5.65;2.00;;;28.90;99.90;;;;;;4903858;29;20058;-54
2022/09/17 11:13:50;;;;;;;5.07;1.63;;;29.00;99.90;;;;;;4936380;29;20380;-54
2022/09/17 11:16:25;;;;;;;6.00;1.40;;;29.10;99.90;;;;;;4936100;29;20082;-54
2022/09/17 11:19:21;;;;;;;5.95;2.08;;;29.20;99.90;;;;;;4936175;29;20480;-54
2022/09/17 11:21:57;;;;;;;9.27;2.40;;;29.30;99.90;;;;;;4935924;29;20138;-54
2022/09/17 11:24:45;;;;;;;8.00;1.88;;;29.30;99.90;;;;;;4935861;29;20079;-54
2022/09/17 11:27:24;;;;;;;2.85;1.80;;;29.40;99.90;;;;;;4935831;29;20102;-54
2022/09/17 11:30:08;;;;;;;3.83;2.00;;;29.40;99.90;;;;;;4935793;29;20038;-55
2022/09/17 11:32:58;;;;;;;6.55;1.92;;;29.40;99.90;;;;;;4934714;29;20038;-54
2022/09/17 11:35:32;;;;;;;6.40;2.30;;;29.50;99.90;;;;;;4935876;29;20028;-54
2022/09/17 11:38:08;;;;;;;3.55;1.75;;;29.60;99.90;;;;;;4935723;29;20115;-54
2022/09/17 11:40:46;;;;;;;4.13;1.80;;;29.70;99.90;;;;;;4935791;29;20043;-55
2022/09/17 11:43:22;;;;;;;5.05;1.85;;;29.80;99.90;;;;;;4935655;29;20472;-55
2022/09/17 11:46:01;;;;;;;6.20;2.03;;;29.90;99.90;;;;;;4933684;29;20043;-55
2022/09/17 11:48:37;;;;;;;5.90;2.13;;;29.90;99.90;;;;;;4926291;29;20028;-55
2022/09/17 11:51:34;;;;;;;3.95;1.98;;;30.00;99.90;;;;;;4950230;29;20122;-55
2022/09/17 11:54:27;;;;;;;7.80;2.03;;;30.10;99.90;;;;;;4935240;29;20484;-54
2022/09/17 11:57:09;;;;;;;2.03;1.50;;;30.10;99.90;;;;;;4935409;29;20035;-53
2022/09/17 11:59:54;;;;;;;5.28;3.33;;;30.20;99.90;;;;;;4935295;29;20503;-54
2022/09/17 12:02:46;;;;;;;2.67;1.27;;;30.30;99.90;;;;;;4935139;29;20032;-54
2022/09/17 12:05:33;;;;;;;2.55;1.48;;;30.30;99.90;;;;;;4923977;29;20043;-55
2022/09/17 12:08:26;;;;;;;3.60;1.40;;;30.40;99.90;;;;;;4935042;29;20023;-52
2022/09/17 12:11:10;;;;;;;4.80;1.20;;;30.40;99.90;;;;;;4934984;29;20028;-53
2022/09/17 12:13:49;;;;;;;2.83;1.02;;;30.40;99.90;;;;;;4932700;29;20038;-52
2022/09/17 12:16:32;;;;;;;4.68;1.73;;;30.40;99.90;;;;;;4935180;29;20040;-51
2022/09/17 12:19:22;;;;;;;1.92;1.10;;;30.40;99.90;;;;;;4932669;29;20032;-53
2022/09/17 12:21:50;;;;;;;6.05;1.45;;;30.40;99.90;;;;;;4934326;29;20023;-48
2022/09/17 12:24:25;;;;;;;4.43;1.33;;;30.50;99.90;;;;;;4932850;29;20031;-50
2022/09/17 12:27:06;;;;;;;1.90;0.90;;;30.50;99.90;;;;;;4934720;29;20035;-53
2022/09/17 12:29:56;;;;;;;3.25;1.58;;;30.50;99.90;;;;;;4933395;29;20039;-47
2022/09/17 12:32:33;;;;;;;1.88;1.50;;;30.50;99.90;;;;;;4931649;29;20031;-48
2022/09/17 12:35:13;;;;;;;1.83;1.05;;;30.50;99.90;;;;;;4934213;29;20540;-49
2022/09/17 12:38:16;;;;;;;2.25;1.30;;;30.50;99.90;;;;;;4934601;29;20067;-49
2022/09/17 12:41:00;;;;;;;3.97;1.70;;;30.50;99.90;;;;;;4934288;29;20043;-48
2022/09/17 12:43:49;;;;;;;4.20;1.63;;;30.50;99.90;;;;;;4934058;29;20032;-49
2022/09/17 12:46:18;;;;;;;5.68;2.58;;;30.50;99.90;;;;;;4933613;29;20040;-48
2022/09/17 12:49:21;;;;;;;4.47;1.45;;;30.60;99.90;;;;;;4932362;29;20071;-50
2022/09/17 12:52:10;;;;;;;4.75;1.50;;;30.70;99.90;;;;;;4933484;29;20043;-50
2022/09/17 12:54:41;;;;;;;3.83;1.55;;;30.70;99.90;;;;;;4933813;29;20110;-50
2022/09/17 12:57:10;;;;;;;2.70;1.05;;;30.80;99.90;;;;;;4933845;29;20068;-48
2022/09/17 12:59:57;;;;;;;5.90;1.75;;;30.80;99.90;;;;;;4933453;29;20095;-52
2022/09/17 13:02:46;;;;;;;6.20;2.65;;;30.80;99.90;;;;;;4934159;29;20087;-50
2022/09/17 13:05:15;;;;;;;3.97;2.35;;;30.80;99.90;;;;;;4896175;29;20118;-50
2022/09/17 13:08:08;;;;;;;4.18;2.33;;;30.80;99.90;;;;;;4932062;29;20353;-50
2022/09/17 13:10:33;;;;;;;5.63;1.67;;;30.80;99.90;;;;;;4932808;29;20032;-50
2022/09/17 13:13:25;;;;;;;7.18;1.90;;;30.80;99.90;;;;;;4933710;29;20026;-49
2022/09/17 13:16:26;;;;;;;4.40;1.88;;;30.80;99.90;;;;;;4906492;29;20063;-52